createdAt,value
2022-09-20T00:02:01.398Z,86.98
2022-09-20T00:06:03.574Z,86.92
2022-09-20T00:10:05.173Z,86.82
2022-09-20T00:14:08.872Z,86.70
2022-09-20T00:18:11.453Z,86.66
2022-09-20T00:22:12.813Z,86.68
2022-09-20T00:26:14.124Z,86.92
2022-09-20T00:30:15.459Z,86.82
2022-09-20T00:34:35.748Z,86.93
2022-09-20T00:38:37.077Z,86.90
2022-09-20T00:42:39.080Z,86.70
2022-09-20T00:46:42.298Z,86.79
2022-09-20T00:50:52.686Z,87.35
2022-09-20T00:54:54.121Z,87.19
2022-09-20T00:59:01.961Z,87.16
2022-09-20T01:03:06.335Z,87.23
2022-09-20T01:07:08.337Z,87.66
2022-09-20T01:11:09.785Z,87.29
2022-09-20T01:15:11.493Z,87.26
2022-09-20T01:19:38.244Z,87.25
2022-09-20T01:23:48.741Z,87.53
2022-09-20T01:27:51.802Z,87.67
2022-09-20T01:31:54.925Z,87.57
2022-09-20T01:35:58.668Z,87.45
2022-09-20T01:40:10.802Z,87.20
2022-09-20T01:44:22.922Z,87.39
2022-09-20T01:48:29.852Z,86.99
2022-09-20T01:52:37.465Z,86.84
2022-09-20T01:56:41.684Z,87.45
2022-09-20T02:00:52.252Z,87.85
2022-09-20T02:04:59.829Z,87.61
2022-09-20T02:09:01.108Z,86.83
2022-09-20T02:13:21.092Z,87.37
2022-09-20T02:17:48.748Z,87.87
2022-09-20T02:22:04.420Z,87.58
2022-09-20T02:26:05.664Z,88.26
2022-09-20T02:30:13.335Z,88.34
2022-09-20T02:34:34.055Z,89.08
2022-09-20T02:38:50.669Z,89.27
2022-09-20T02:43:02.060Z,89.96
2022-09-20T02:47:19.165Z,90.21
2022-09-20T02:51:26.181Z,89.99
2022-09-20T02:55:36.598Z,89.29
2022-09-20T02:59:47.054Z,89.56
2022-09-20T03:04:07.083Z,89.65
2022-09-20T03:08:25.301Z,89.76
2022-09-20T03:12:46.849Z,89.82
2022-09-20T03:17:07.101Z,89.77
2022-09-20T03:21:29.344Z,89.50
2022-09-20T03:25:34.257Z,89.76
2022-09-20T03:29:55.694Z,89.61
2022-09-20T03:34:16.209Z,89.82
2022-09-20T03:38:20.913Z,89.51
2022-09-20T03:42:26.832Z,89.53
2022-09-20T03:46:35.364Z,89.32
2022-09-20T03:50:44.940Z,89.22
2022-09-20T03:54:59.556Z,89.46
2022-09-20T03:59:08.045Z,89.30
2022-09-20T04:03:15.539Z,89.68
2022-09-20T04:07:30.198Z,89.70
2022-09-20T04:11:35.541Z,90.12
2022-09-20T04:15:37.481Z,90.59
2022-09-20T04:19:53.320Z,90.48
2022-09-20T04:24:06.913Z,90.76
2022-09-20T04:28:19.283Z,90.79
2022-09-20T04:32:42.214Z,90.63
2022-09-20T04:36:57.504Z,90.37
2022-09-20T04:41:20.324Z,90.57
2022-09-20T04:45:40.509Z,91.25
2022-09-20T04:49:51.319Z,91.31
2022-09-20T04:54:25.411Z,90.92
2022-09-20T04:58:53.351Z,91.00
2022-09-20T05:03:29.509Z,91.48
2022-09-20T05:07:30.793Z,91.60
2022-09-20T05:11:47.404Z,91.93
2022-09-20T05:15:54.619Z,91.93
2022-09-20T05:20:11.972Z,91.26
2022-09-20T05:24:33.620Z,91.57
2022-09-20T05:28:49.539Z,91.69
2022-09-20T05:33:03.234Z,91.63
2022-09-20T05:37:18.317Z,91.35
2022-09-20T05:41:31.891Z,91.36
2022-09-20T05:45:47.398Z,91.35
2022-09-20T05:49:55.089Z,91.18
2022-09-20T05:54:30.533Z,91.26
2022-09-20T05:58:58.178Z,90.89
2022-09-20T06:03:16.291Z,91.49
2022-09-20T06:07:17.689Z,91.65
2022-09-20T06:11:44.537Z,91.57
2022-09-20T06:15:57.539Z,91.16
2022-09-20T06:19:58.849Z,90.88
2022-09-20T06:24:15.604Z,91.50
2022-09-20T06:28:21.618Z,91.14
2022-09-20T06:32:23.024Z,90.84
2022-09-20T06:36:59.960Z,91.18
2022-09-20T06:41:26.389Z,91.16
2022-09-20T06:45:27.770Z,90.99
2022-09-20T06:49:29.348Z,90.86
2022-09-20T06:53:32.620Z,91.20
2022-09-20T06:57:36.801Z,90.76
2022-09-20T07:01:38.663Z,91.15
2022-09-20T07:05:40.242Z,90.52
2022-09-20T07:09:41.505Z,90.23
2022-09-20T07:13:43.906Z,90.15
2022-09-20T07:17:45.473Z,89.53
2022-09-20T07:21:46.906Z,89.03
2022-09-20T07:25:54.301Z,88.93
2022-09-20T07:29:56.321Z,88.38
2022-09-20T07:34:04.312Z,87.72
2022-09-20T07:38:19.368Z,86.58
2022-09-20T07:42:20.715Z,85.77
2022-09-20T07:46:28.304Z,84.61
2022-09-20T07:50:29.726Z,83.29
2022-09-20T07:54:31.391Z,83.19
2022-09-20T07:58:34.189Z,82.84
2022-09-20T08:02:36.029Z,81.66
2022-09-20T08:06:38.236Z,80.95
2022-09-20T08:10:41.061Z,79.14
2022-09-20T08:14:42.291Z,78.55
2022-09-20T08:18:57.544Z,77.53
2022-09-20T08:23:22.621Z,75.74
2022-09-20T08:27:24.690Z,73.70
2022-09-20T08:31:27.625Z,73.29
2022-09-20T08:35:29.651Z,71.02
2022-09-20T08:43:55.668Z,67.45
2022-09-20T08:48:06.375Z,66.21
2022-09-20T08:52:14.879Z,63.88
2022-09-20T08:56:23.370Z,63.70
2022-09-20T09:00:34.321Z,62.23
2022-09-20T09:04:36.439Z,61.51
2022-09-20T09:08:38.752Z,61.57
2022-09-20T09:12:49.825Z,61.09
2022-09-20T09:16:51.395Z,60.08
2022-09-20T09:20:52.944Z,59.97
2022-09-20T09:25:13.647Z,61.15
2022-09-20T09:29:14.888Z,60.36
2022-09-20T09:33:22.506Z,58.79
2022-09-20T09:37:35.388Z,59.56
2022-09-20T09:41:36.868Z,60.17
2022-09-20T09:45:38.952Z,60.20
2022-09-20T09:49:59.716Z,61.21
2022-09-20T09:54:09.449Z,62.03
2022-09-20T09:58:23.949Z,62.40
2022-09-20T10:02:26.241Z,62.50
2022-09-20T10:06:41.467Z,63.12
2022-09-20T10:11:01.818Z,63.33
2022-09-20T10:15:16.019Z,63.75
2022-09-20T10:19:22.511Z,63.44
2022-09-20T10:24:01.379Z,61.62
2022-09-20T10:27:59.369Z,60.28
2022-09-20T10:32:06.554Z,60.41
2022-09-20T10:36:13.859Z,60.85
2022-09-20T10:40:15.394Z,61.04
2022-09-20T10:44:19.870Z,61.01
2022-09-20T10:48:37.865Z,59.78
2022-09-20T10:52:51.833Z,60.13
2022-09-20T10:56:59.076Z,58.13
2022-09-20T11:01:32.657Z,57.57
2022-09-20T11:05:52.650Z,57.22
2022-09-20T11:09:58.484Z,57.13
2022-09-20T11:14:03.467Z,55.79
2022-09-20T11:18:04.981Z,55.36
2022-09-20T11:22:09.031Z,55.92
2022-09-20T11:26:19.629Z,54.61
2022-09-20T11:30:22.000Z,53.97
2022-09-20T11:34:28.093Z,54.14
2022-09-20T11:38:43.764Z,52.51
2022-09-20T11:42:46.066Z,52.28
2022-09-20T11:47:02.856Z,51.23
2022-09-20T11:51:15.389Z,50.84
2022-09-20T11:55:37.127Z,51.89
2022-09-20T11:59:42.452Z,52.01
2022-09-20T12:03:46.234Z,52.54
2022-09-20T12:07:53.429Z,53.51
2022-09-20T12:12:01.581Z,53.17
2022-09-20T12:16:19.530Z,53.72
2022-09-20T12:20:32.913Z,54.42
2022-09-20T12:24:35.034Z,55.01
2022-09-20T12:28:47.516Z,55.39
2022-09-20T12:32:51.901Z,56.89
2022-09-20T12:36:53.392Z,58.22
2022-09-20T12:41:06.144Z,58.12
2022-09-20T12:45:17.552Z,59.76
2022-09-20T12:49:41.359Z,60.26
2022-09-20T12:53:42.653Z,61.65
2022-09-20T12:57:43.972Z,62.93
2022-09-20T13:01:46.370Z,64.09
2022-09-20T13:05:52.527Z,64.25
2022-09-20T13:09:54.210Z,63.51
2022-09-20T13:14:00.056Z,62.40
2022-09-20T13:18:01.969Z,61.68
2022-09-20T13:22:05.523Z,61.12
2022-09-20T13:26:09.490Z,60.35
2022-09-20T13:30:20.727Z,60.98
2022-09-20T13:34:25.400Z,60.60
2022-09-20T13:38:31.128Z,61.04
2022-09-20T13:42:36.789Z,60.36
2022-09-20T13:46:43.248Z,59.38
2022-09-20T13:50:48.061Z,58.89
2022-09-20T13:54:51.500Z,57.97
2022-09-20T13:58:53.387Z,58.82
2022-09-20T14:03:01.557Z,58.14
2022-09-20T14:07:06.297Z,58.82
2022-09-20T14:11:22.344Z,56.55
2022-09-20T14:15:30.939Z,55.32
2022-09-20T14:19:34.946Z,55.82
2022-09-20T14:23:51.564Z,56.84
2022-09-20T14:28:06.556Z,54.76
2022-09-20T14:32:14.872Z,52.84
2022-09-20T14:36:18.568Z,53.84
2022-09-20T14:40:33.866Z,53.08
2022-09-20T14:44:36.872Z,52.59
2022-09-20T14:48:41.233Z,52.30
2022-09-20T14:52:44.626Z,51.41
2022-09-20T14:56:52.882Z,49.67
2022-09-20T15:01:20.576Z,48.67
2022-09-20T15:05:25.870Z,49.56
2022-09-20T15:09:27.496Z,48.65
2022-09-20T15:13:28.800Z,48.91
2022-09-20T15:17:30.049Z,50.86
2022-09-20T15:21:32.134Z,51.73
2022-09-20T15:25:33.797Z,49.65
2022-09-20T15:29:35.333Z,50.09
2022-09-20T15:33:40.407Z,53.31
2022-09-20T15:37:42.580Z,54.59
2022-09-20T15:41:46.021Z,55.09
2022-09-20T15:45:50.045Z,56.42
2022-09-20T15:49:53.625Z,57.35
2022-09-20T15:54:00.031Z,56.63
2022-09-20T15:58:01.447Z,56.62
2022-09-20T16:02:02.928Z,56.95
2022-09-20T16:06:05.869Z,57.92
2022-09-20T16:10:07.447Z,58.33
2022-09-20T16:14:08.913Z,58.71
2022-09-20T16:18:29.037Z,59.52
2022-09-20T16:22:40.588Z,60.02
2022-09-20T16:26:42.056Z,60.46
2022-09-20T16:30:49.731Z,61.03
2022-09-20T16:34:54.785Z,60.61
2022-09-20T16:39:03.311Z,61.08
2022-09-20T16:43:06.112Z,61.35
2022-09-20T16:47:08.779Z,62.95
2022-09-20T16:51:10.036Z,62.73
2022-09-20T16:55:19.560Z,62.96
2022-09-20T16:59:27.902Z,65.00
2022-09-20T17:03:35.599Z,64.71
2022-09-20T17:07:37.109Z,65.80
2022-09-20T17:11:39.896Z,67.46
2022-09-20T17:15:41.255Z,68.94
2022-09-20T17:19:42.856Z,70.27
2022-09-20T17:23:50.071Z,71.01
2022-09-20T17:27:52.192Z,70.99
2022-09-20T17:32:00.754Z,70.71
2022-09-20T17:36:03.720Z,71.68
2022-09-20T17:40:11.655Z,71.88
2022-09-20T17:44:13.424Z,72.10
2022-09-20T17:48:14.796Z,72.70
2022-09-20T17:52:18.001Z,73.00
2022-09-20T17:56:21.396Z,73.51
2022-09-20T18:00:22.693Z,73.92
2022-09-20T18:04:25.177Z,74.44
2022-09-20T18:08:32.712Z,73.71
2022-09-20T18:12:34.173Z,74.47
2022-09-20T18:16:37.241Z,73.90
2022-09-20T18:20:45.628Z,73.50
2022-09-20T18:24:46.872Z,74.16
2022-09-20T18:28:56.786Z,74.45
2022-09-20T18:33:05.316Z,75.18
2022-09-20T18:37:13.767Z,75.36
2022-09-20T18:41:16.484Z,76.94
2022-09-20T18:45:19.216Z,77.01
2022-09-20T18:49:21.581Z,76.84
2022-09-20T18:53:24.768Z,76.60
2022-09-20T18:57:26.288Z,77.16
2022-09-20T19:01:34.019Z,77.57
2022-09-20T19:05:47.764Z,78.56
2022-09-20T19:09:51.877Z,78.43
2022-09-20T19:13:57.237Z,76.90
2022-09-20T19:18:23.943Z,74.53
2022-09-20T19:23:11.932Z,73.54
2022-09-20T19:27:40.706Z,73.89
2022-09-20T19:32:08.656Z,76.16
2022-09-20T19:37:02.853Z,75.65
2022-09-20T19:41:42.713Z,75.10
2022-09-20T19:46:16.747Z,75.01
2022-09-20T19:50:46.184Z,75.72
2022-09-20T19:55:16.831Z,76.21
2022-09-20T19:59:39.160Z,75.84
2022-09-20T20:04:01.005Z,76.14
2022-09-20T20:08:28.693Z,76.91
2022-09-20T20:12:40.781Z,77.52
2022-09-20T20:16:42.076Z,78.51
2022-09-20T20:20:56.761Z,80.11
2022-09-20T20:24:58.160Z,80.35
2022-09-20T20:29:00.282Z,81.04
2022-09-20T20:33:04.400Z,80.91
2022-09-20T20:37:19.246Z,80.75
2022-09-20T20:41:27.716Z,81.34
2022-09-20T20:45:30.517Z,81.77
2022-09-20T20:49:32.018Z,81.89
2022-09-20T20:53:34.340Z,82.07
2022-09-20T20:57:36.000Z,82.29
2022-09-20T21:01:44.755Z,82.80
2022-09-20T21:05:53.616Z,82.75
2022-09-20T21:09:54.916Z,82.95
2022-09-20T21:13:57.596Z,82.92
2022-09-20T21:17:58.813Z,83.35
2022-09-20T21:22:00.677Z,83.76
2022-09-20T21:26:09.229Z,83.81
2022-09-20T21:30:11.412Z,84.58
2022-09-20T21:34:13.339Z,84.29
2022-09-20T21:38:21.020Z,84.81
2022-09-20T21:42:22.396Z,85.04
2022-09-20T21:46:28.183Z,84.67
2022-09-20T21:50:29.488Z,85.38
2022-09-20T21:54:30.784Z,85.55
2022-09-20T21:58:32.348Z,85.23
2022-09-20T22:02:35.130Z,85.82
2022-09-20T22:06:37.865Z,85.82
2022-09-20T22:10:39.234Z,86.55
2022-09-20T22:14:40.749Z,85.51
2022-09-20T22:18:42.942Z,85.56
2022-09-20T22:22:44.891Z,86.54
2022-09-20T22:26:53.746Z,87.08
2022-09-20T22:30:55.054Z,86.87
2022-09-20T22:34:57.906Z,87.52
2022-09-20T22:38:59.177Z,87.49
2022-09-20T22:43:00.592Z,87.66
2022-09-20T22:47:08.772Z,87.44
2022-09-20T22:51:11.705Z,87.96
2022-09-20T22:55:12.984Z,87.91
2022-09-20T22:59:14.618Z,88.21
2022-09-20T23:03:15.942Z,87.90
2022-09-20T23:07:17.183Z,88.16
2022-09-20T23:11:18.819Z,88.07
2022-09-20T23:15:20.164Z,87.81
2022-09-20T23:19:21.558Z,88.09
2022-09-20T23:23:23.519Z,88.00
2022-09-20T23:27:31.804Z,87.80
2022-09-20T23:31:34.524Z,87.27
2022-09-20T23:35:41.847Z,88.35
2022-09-20T23:39:43.185Z,88.38
2022-09-20T23:43:44.526Z,87.84
2022-09-20T23:47:47.539Z,87.81
2022-09-20T23:51:48.836Z,87.89
2022-09-20T23:55:50.501Z,88.21
2022-09-20T23:59:52.684Z,88.33
